Terminal Aerodrome Forecast
Issued by NWS

Home | Current Version | Previous Version | Text Only | Print | Product List | Glossary On
Versions: 1 2 3 4 5 6 7 8 9 10 11 12 13 14 15
000
FTUS43 KJKL 201100
TAFSJS
TAF
KSJS 201126Z 2012/2112 VRB03KT P6SM SCT250
     FM201600 23007KT P6SM VCSH FEW035 SCT080 BKN250
     FM210000 23003KT P6SM VCSH SCT040 BKN070
     FM210500 VRB03KT P6SM VCSH BKN030=

USA.gov is the U.S. government's official web portal to all federal, state and local government web resources and services.